createdAt,value
2022-12-04T04:50:31.672Z,102.00
2022-12-04T04:53:04.361Z,110.43
2022-12-04T04:55:36.357Z,106.00
2022-12-04T04:58:10.039Z,108.73
2022-12-04T05:00:39.106Z,99.00
2022-12-04T05:03:08.033Z,109.30
2022-12-04T05:05:38.424Z,100.47
2022-12-04T05:08:07.472Z,110.77
2022-12-04T05:10:36.637Z,92.97
2022-12-04T05:13:05.064Z,102.90
2022-12-04T05:15:33.617Z,100.00
2022-12-04T05:18:02.368Z,109.57
2022-12-04T05:20:29.940Z,113.87
2022-12-04T05:23:00.033Z,106.00
2022-12-04T05:25:28.811Z,99.70
2022-12-04T05:27:57.278Z,100.57
2022-12-04T05:30:25.854Z,94.70
2022-12-04T05:32:54.251Z,95.07
2022-12-04T05:35:23.088Z,108.17
2022-12-04T05:37:51.593Z,102.60
2022-12-04T05:40:21.953Z,104.60
2022-12-04T05:42:50.483Z,105.90
2022-12-04T05:45:19.317Z,101.40
2022-12-04T05:47:49.042Z,101.50
2022-12-04T05:50:17.437Z,100.67
2022-12-04T05:52:45.895Z,108.67
2022-12-04T05:55:14.341Z,100.23
2022-12-04T05:57:44.600Z,97.63
2022-12-04T06:00:14.588Z,100.17
2022-12-04T06:02:43.441Z,98.70
2022-12-04T06:05:11.975Z,104.77
2022-12-04T06:07:40.683Z,101.73
2022-12-04T06:10:09.433Z,97.33
2022-12-04T06:12:37.938Z,95.57
2022-12-04T06:15:08.731Z,99.87
2022-12-04T06:17:37.178Z,101.30
2022-12-04T06:20:11.266Z,103.53
2022-12-04T06:22:40.776Z,106.87
2022-12-04T06:25:09.983Z,94.70
2022-12-04T06:27:38.551Z,94.63
2022-12-04T06:30:10.953Z,105.37
2022-12-04T06:32:39.434Z,100.03
2022-12-04T06:35:08.435Z,100.10
2022-12-04T06:37:37.085Z,104.10
2022-12-04T06:40:07.527Z,107.00
2022-12-04T06:42:36.129Z,97.07
2022-12-04T06:45:04.874Z,104.73
2022-12-04T06:47:36.274Z,103.53
2022-12-04T06:50:05.741Z,92.47
2022-12-04T06:52:35.045Z,103.50
2022-12-04T06:55:03.577Z,108.57
2022-12-04T06:57:32.359Z,99.00
2022-12-04T07:00:00.860Z,101.67
2022-12-04T07:02:29.403Z,103.37
2022-12-04T07:04:59.295Z,96.23
2022-12-04T07:07:28.011Z,98.97
2022-12-04T07:09:56.799Z,99.70
2022-12-04T07:12:25.467Z,98.73
2022-12-04T07:14:54.476Z,93.10
2022-12-04T07:17:22.825Z,97.90
2022-12-04T07:19:51.518Z,98.83
2022-12-04T07:22:22.482Z,92.23
2022-12-04T07:24:51.042Z,101.47
2022-12-04T07:27:20.284Z,100.40
2022-12-04T07:29:48.982Z,95.63
2022-12-04T07:32:17.519Z,101.97
2022-12-04T07:34:48.332Z,94.40
2022-12-04T07:37:17.043Z,91.43
2022-12-04T07:39:47.003Z,96.13
2022-12-04T07:42:18.464Z,103.43
2022-12-04T07:44:51.012Z,93.37
2022-12-04T07:47:19.847Z,91.20
2022-12-04T07:49:48.318Z,92.23
2022-12-04T07:52:17.438Z,102.90
2022-12-04T07:54:47.447Z,100.13
2022-12-04T07:57:15.905Z,106.27
2022-12-04T07:59:44.431Z,91.37
2022-12-04T08:02:14.002Z,99.73
2022-12-04T08:04:43.757Z,105.23
2022-12-04T08:07:12.350Z,106.60
2022-12-04T08:09:40.925Z,105.47
2022-12-04T08:12:11.699Z,110.23
2022-12-04T08:14:41.894Z,104.77
2022-12-04T08:17:10.727Z,107.23
2022-12-04T08:19:39.364Z,106.93
2022-12-04T08:22:09.725Z,108.63
2022-12-04T08:24:38.492Z,105.50
2022-12-04T08:27:07.121Z,114.63
2022-12-04T08:29:37.910Z,116.17
2022-12-04T08:32:06.921Z,116.33
2022-12-04T08:34:35.820Z,106.17
2022-12-04T08:37:04.410Z,105.07
2022-12-04T08:39:32.938Z,116.40
2022-12-04T08:42:01.493Z,101.37
2022-12-04T08:44:29.945Z,113.63
2022-12-04T08:46:59.842Z,109.80
2022-12-04T08:49:29.005Z,113.67
2022-12-04T08:51:58.162Z,110.50
2022-12-04T08:54:28.517Z,105.30
2022-12-04T08:57:00.367Z,102.33
2022-12-04T08:59:28.832Z,106.63
2022-12-04T09:01:57.447Z,106.67
2022-12-04T09:04:27.818Z,93.77
2022-12-04T09:06:56.500Z,106.43
2022-12-04T09:09:25.345Z,96.30
2022-12-04T09:11:54.273Z,110.20
2022-12-04T09:14:26.068Z,123.53
2022-12-04T09:16:54.615Z,112.93
2022-12-04T09:19:31.452Z,101.93
2022-12-04T09:21:59.866Z,111.80
2022-12-04T09:24:31.596Z,114.70
2022-12-04T09:27:00.024Z,112.97
2022-12-04T09:29:28.448Z,110.60
2022-12-04T09:31:57.226Z,125.67
2022-12-04T09:34:26.297Z,122.67
2022-12-04T09:36:56.196Z,117.37
2022-12-04T09:39:24.687Z,117.10
2022-12-04T09:42:09.798Z,129.40
2022-12-04T09:44:42.929Z,110.57
2022-12-04T09:47:21.183Z,120.47
2022-12-04T09:49:54.632Z,103.30
2022-12-04T09:52:35.600Z,111.93
2022-12-04T09:55:06.824Z,102.10
2022-12-04T09:57:39.747Z,110.03
2022-12-04T10:00:13.918Z,108.40
2022-12-04T10:02:44.051Z,103.17
2022-12-04T10:05:20.088Z,109.83
2022-12-04T10:07:56.839Z,104.13
2022-12-04T10:10:34.077Z,114.17
2022-12-04T10:13:14.363Z,104.83
2022-12-04T10:15:51.133Z,121.47
2022-12-04T10:18:37.138Z,107.20
2022-12-04T10:21:25.939Z,114.10
2022-12-04T10:24:09.112Z,113.20
2022-12-04T10:26:43.191Z,99.97
2022-12-04T10:29:20.983Z,104.97
2022-12-04T10:31:51.168Z,103.83
2022-12-04T10:34:25.798Z,104.63
2022-12-04T10:36:57.052Z,103.33
2022-12-04T10:39:32.340Z,106.03
2022-12-04T10:42:05.093Z,108.67
2022-12-04T10:44:34.089Z,106.23
2022-12-04T10:47:06.374Z,97.83
2022-12-04T10:49:37.621Z,100.73
2022-12-04T10:52:10.073Z,102.80
2022-12-04T10:54:48.207Z,105.67
2022-12-04T10:57:18.137Z,111.63
2022-12-04T10:59:55.271Z,94.43
2022-12-04T11:02:27.887Z,95.67
2022-12-04T11:04:58.634Z,116.03
2022-12-04T11:07:29.957Z,98.03
2022-12-04T11:10:04.432Z,113.10
2022-12-04T11:12:33.467Z,106.80
2022-12-04T11:15:13.674Z,109.43
2022-12-04T11:17:42.436Z,101.23
2022-12-04T11:20:20.005Z,108.47
2022-12-04T11:22:52.969Z,85.80
2022-12-04T11:25:25.139Z,94.97
2022-12-04T11:27:56.256Z,93.27
2022-12-04T11:30:30.344Z,104.87
2022-12-04T11:32:59.802Z,97.20
2022-12-04T11:35:30.132Z,92.67
2022-12-04T11:38:08.584Z,82.40
2022-12-04T11:40:38.938Z,91.83
2022-12-04T11:43:15.238Z,90.87
2022-12-04T11:45:54.729Z,94.40
2022-12-04T11:48:23.761Z,85.13
2022-12-04T11:51:01.382Z,93.80
2022-12-04T11:53:43.324Z,86.93
2022-12-04T11:56:28.062Z,80.40
2022-12-04T11:59:20.386Z,86.87
2022-12-04T12:01:57.949Z,84.67
2022-12-04T12:04:55.991Z,85.33
2022-12-04T12:07:39.096Z,79.83
2022-12-04T12:10:15.023Z,78.03
2022-12-04T12:12:56.874Z,77.23
2022-12-04T12:15:36.021Z,87.00
2022-12-04T12:18:36.007Z,81.83
2022-12-04T12:21:09.914Z,88.27
2022-12-04T12:23:56.139Z,83.63
2022-12-04T12:26:32.126Z,81.10
2022-12-04T12:29:12.788Z,76.77
2022-12-04T12:32:01.290Z,76.13
2022-12-04T12:34:37.760Z,75.17
2022-12-04T12:37:15.969Z,68.27
2022-12-04T12:39:51.206Z,78.70
2022-12-04T12:42:27.117Z,78.43
2022-12-04T12:45:03.850Z,73.67
2022-12-04T12:47:39.363Z,71.80
2022-12-04T12:50:15.042Z,75.57
2022-12-04T12:52:49.158Z,76.23
2022-12-04T12:55:22.270Z,79.30
2022-12-04T12:57:59.418Z,62.10
2022-12-04T13:00:33.390Z,71.20
2022-12-04T13:03:05.241Z,67.00
2022-12-04T13:05:39.115Z,74.13
2022-12-04T13:08:17.811Z,61.23
2022-12-04T13:10:55.046Z,62.70
2022-12-04T13:13:28.004Z,67.63
2022-12-04T13:16:04.453Z,71.97
2022-12-04T13:18:39.909Z,70.70
2022-12-04T13:21:10.137Z,69.73
2022-12-04T13:23:59.090Z,69.70
2022-12-04T13:26:47.792Z,78.10
2022-12-04T13:29:31.881Z,69.23
2022-12-04T13:32:32.558Z,73.73
2022-12-04T13:35:20.024Z,66.97
2022-12-04T13:38:01.087Z,69.87
2022-12-04T13:40:41.838Z,73.30
2022-12-04T13:43:21.731Z,76.47
2022-12-04T13:45:53.677Z,62.27
2022-12-04T13:48:31.725Z,71.80
2022-12-04T13:51:09.307Z,78.67
2022-12-04T13:53:40.449Z,121.60
2022-12-04T13:56:25.258Z,93.90
2022-12-04T13:59:02.416Z,77.70
2022-12-04T14:01:37.162Z,78.40
2022-12-04T14:04:07.910Z,75.37
2022-12-04T14:06:40.491Z,71.80
2022-12-04T14:09:19.691Z,64.73
2022-12-04T14:11:59.498Z,75.83
2022-12-04T14:14:31.510Z,66.67
2022-12-04T14:17:01.628Z,71.30
2022-12-04T14:19:35.431Z,73.37
2022-12-04T14:22:06.070Z,71.40
2022-12-04T14:24:37.398Z,75.67
2022-12-04T14:27:34.892Z,79.57
2022-12-04T14:30:04.626Z,76.00
2022-12-04T14:32:36.595Z,70.40
2022-12-04T14:35:07.969Z,74.30
2022-12-04T14:37:41.422Z,87.37
2022-12-04T14:40:21.038Z,73.77
2022-12-04T14:42:51.435Z,83.93
2022-12-04T14:45:30.952Z,81.20
2022-12-04T14:48:14.471Z,83.20
2022-12-04T14:50:52.025Z,81.53
2022-12-04T14:53:33.229Z,86.17
2022-12-04T14:56:16.526Z,77.57
2022-12-04T14:58:47.992Z,84.77
2022-12-04T15:01:29.011Z,79.57
2022-12-04T15:04:05.354Z,85.43
2022-12-04T15:06:35.646Z,91.07
2022-12-04T15:09:23.628Z,85.07
2022-12-04T15:12:07.897Z,79.70
2022-12-04T15:15:11.996Z,85.77
2022-12-04T15:17:40.591Z,93.80
2022-12-04T15:20:19.150Z,86.30
2022-12-04T15:22:49.605Z,98.50
2022-12-04T15:25:21.556Z,96.97
2022-12-04T15:27:52.942Z,91.47
2022-12-04T15:30:25.517Z,94.60
2022-12-04T15:32:55.288Z,95.60
2022-12-04T15:35:27.275Z,99.70
2022-12-04T15:37:57.642Z,87.97
2022-12-04T15:40:32.394Z,103.03
2022-12-04T15:43:17.583Z,117.83
2022-12-04T15:45:46.747Z,101.83
2022-12-04T15:48:26.036Z,107.73
2022-12-04T15:51:00.378Z,118.43
2022-12-04T15:53:34.267Z,100.90
2022-12-04T15:56:06.023Z,112.57
2022-12-04T15:58:37.820Z,107.97
2022-12-04T16:01:10.840Z,124.93
2022-12-04T16:03:48.078Z,109.77
2022-12-04T16:06:20.241Z,114.70
2022-12-04T16:08:54.222Z,118.27
2022-12-04T16:11:42.340Z,120.33
2022-12-04T16:14:18.916Z,122.27
2022-12-04T16:16:52.660Z,117.80
2022-12-04T16:19:29.508Z,123.87
2022-12-04T16:22:01.788Z,125.03
2022-12-04T16:24:33.911Z,136.40
2022-12-04T16:27:04.463Z,118.40
2022-12-04T16:29:33.065Z,117.33
2022-12-04T16:32:04.048Z,134.70
2022-12-04T16:34:34.581Z,144.63
2022-12-04T16:37:03.867Z,144.03
2022-12-04T16:39:39.850Z,134.83
2022-12-04T16:42:16.696Z,136.63
2022-12-04T16:44:45.384Z,136.13
2022-12-04T16:47:14.884Z,137.53
2022-12-04T16:49:44.446Z,152.20
2022-12-04T16:52:13.456Z,125.83
2022-12-04T16:54:43.288Z,143.03
2022-12-04T16:57:11.748Z,130.33
2022-12-04T16:59:41.324Z,150.33
2022-12-04T17:02:18.623Z,140.47
2022-12-04T17:04:47.168Z,145.27
2022-12-04T17:07:16.360Z,165.37
2022-12-04T17:09:49.960Z,153.73
2022-12-04T17:12:18.770Z,175.50
2022-12-04T17:14:47.427Z,157.00
2022-12-04T17:17:18.694Z,151.87
2022-12-04T17:19:48.344Z,154.77
2022-12-04T17:22:21.306Z,151.73
2022-12-04T17:24:55.972Z,158.77
2022-12-04T17:27:26.217Z,160.73
2022-12-04T17:29:57.490Z,156.27
2022-12-04T17:32:27.865Z,147.67
2022-12-04T17:34:57.930Z,164.87
2022-12-04T17:37:29.092Z,178.60
2022-12-04T17:39:59.384Z,164.40
2022-12-04T17:42:31.020Z,161.53
2022-12-04T17:44:59.820Z,156.60
2022-12-04T17:47:36.144Z,156.30
2022-12-04T17:50:05.310Z,151.73
2022-12-04T17:52:36.643Z,146.57
2022-12-04T17:55:08.946Z,161.20
2022-12-04T17:57:37.687Z,166.03
2022-12-04T18:00:09.542Z,190.47
2022-12-04T18:02:38.276Z,152.73
2022-12-04T18:05:07.092Z,147.90
2022-12-04T18:07:35.665Z,133.87
2022-12-04T18:10:06.318Z,163.20
2022-12-04T18:12:34.869Z,170.27
2022-12-04T18:15:03.361Z,152.80
2022-12-04T18:17:31.724Z,155.70
2022-12-04T18:20:04.463Z,155.03
2022-12-04T18:22:33.853Z,138.67
2022-12-04T18:25:02.604Z,145.57
2022-12-04T18:27:32.509Z,151.07
2022-12-04T18:30:02.092Z,138.80
2022-12-04T18:32:33.683Z,163.47
2022-12-04T18:35:08.397Z,142.07
2022-12-04T18:37:42.635Z,149.53
2022-12-04T18:40:14.782Z,143.83
2022-12-04T18:42:44.736Z,144.17
2022-12-04T18:45:13.899Z,140.47
2022-12-04T18:47:42.327Z,146.40
2022-12-04T18:50:11.378Z,157.30
2022-12-04T18:52:43.587Z,157.83
2022-12-04T18:55:12.862Z,159.97
2022-12-04T18:57:41.526Z,161.03
2022-12-04T19:00:13.708Z,148.87
2022-12-04T19:02:47.124Z,140.97
2022-12-04T19:05:16.138Z,138.63
2022-12-04T19:07:45.455Z,148.50
2022-12-04T19:10:16.650Z,157.00
2022-12-04T19:12:46.225Z,134.00
2022-12-04T19:15:17.017Z,152.33
2022-12-04T19:17:46.608Z,141.40
2022-12-04T19:20:18.364Z,144.87
2022-12-04T19:22:46.912Z,136.07
2022-12-04T19:25:16.370Z,136.30
2022-12-04T19:27:45.079Z,139.80
2022-12-04T19:30:14.416Z,129.43
2022-12-04T19:32:45.384Z,137.07
2022-12-04T19:35:13.951Z,140.17
2022-12-04T19:37:44.811Z,133.23
2022-12-04T19:40:17.361Z,128.60
2022-12-04T19:42:46.773Z,121.27
2022-12-04T19:45:15.464Z,132.87
2022-12-04T19:47:47.392Z,121.33
2022-12-04T19:50:15.987Z,131.67
2022-12-04T19:52:45.843Z,138.73
2022-12-04T19:55:20.322Z,129.93
2022-12-04T19:57:49.768Z,118.57
2022-12-04T20:00:19.140Z,125.57
2022-12-04T20:02:49.011Z,134.63
2022-12-04T20:05:17.849Z,121.53
2022-12-04T20:07:46.342Z,130.37
2022-12-04T20:10:16.800Z,120.23
2022-12-04T20:12:45.250Z,127.20
2022-12-04T20:15:13.820Z,120.90
2022-12-04T20:17:42.205Z,114.37
2022-12-04T20:20:12.666Z,128.73
2022-12-04T20:22:41.104Z,112.97
2022-12-04T20:25:10.219Z,121.73
2022-12-04T20:27:38.883Z,128.67
2022-12-04T20:30:08.897Z,119.57
2022-12-04T20:32:37.431Z,125.30
2022-12-04T20:35:07.485Z,123.57
2022-12-04T20:37:38.177Z,111.83
2022-12-04T20:40:08.790Z,114.80
2022-12-04T20:42:37.271Z,121.37
2022-12-04T20:45:07.040Z,107.47
2022-12-04T20:47:36.857Z,132.27
2022-12-04T20:50:06.508Z,124.93
2022-12-04T20:52:36.522Z,128.67
2022-12-04T20:55:06.685Z,129.60
2022-12-04T20:57:36.192Z,118.63
2022-12-04T21:00:06.909Z,120.00
2022-12-04T21:02:39.608Z,125.47
2022-12-04T21:05:10.573Z,132.50
2022-12-04T21:07:41.408Z,130.83
2022-12-04T21:10:11.908Z,130.37
2022-12-04T21:12:58.144Z,128.97
2022-12-04T21:15:44.544Z,129.33
2022-12-04T21:18:13.487Z,129.10
2022-12-04T21:20:41.904Z,114.13
2022-12-04T21:23:11.756Z,166.27
2022-12-04T21:25:40.250Z,123.90
2022-12-04T21:28:09.793Z,127.60
2022-12-04T21:30:38.257Z,114.20
2022-12-04T21:33:06.867Z,129.13
2022-12-04T21:35:35.492Z,126.03
2022-12-04T21:38:04.744Z,114.10
2022-12-04T21:40:41.983Z,118.30
2022-12-04T21:43:12.662Z,111.67
2022-12-04T21:45:41.141Z,128.30
2022-12-04T21:48:11.555Z,120.97
2022-12-04T21:50:39.978Z,125.37
2022-12-04T21:53:08.992Z,123.30
2022-12-04T21:55:39.199Z,125.13
2022-12-04T21:58:07.908Z,131.70
2022-12-04T22:00:36.408Z,133.37
2022-12-04T22:03:06.242Z,137.30
2022-12-04T22:05:35.188Z,133.50
2022-12-04T22:08:04.777Z,137.80
2022-12-04T22:10:35.788Z,133.13
2022-12-04T22:13:05.622Z,139.30
2022-12-04T22:15:39.745Z,130.90
2022-12-04T22:18:09.770Z,130.20
2022-12-04T22:20:41.103Z,131.43
2022-12-04T22:23:10.860Z,133.67
2022-12-04T22:25:39.661Z,128.60
2022-12-04T22:28:10.682Z,123.17
2022-12-04T22:30:39.095Z,135.53
2022-12-04T22:33:08.691Z,128.40
2022-12-04T22:35:37.592Z,130.43
2022-12-04T22:38:06.338Z,142.77
2022-12-04T22:40:34.986Z,143.20
2022-12-04T22:43:03.851Z,142.37
2022-12-04T22:45:33.670Z,121.70
2022-12-04T22:48:02.577Z,126.73
2022-12-04T22:50:31.111Z,141.83
2022-12-04T22:52:59.829Z,139.37
2022-12-04T22:55:29.012Z,146.47
2022-12-04T22:57:57.606Z,147.93
2022-12-04T23:00:27.030Z,138.63
2022-12-04T23:02:56.983Z,149.17
2022-12-04T23:05:25.682Z,137.50
2022-12-04T23:07:54.957Z,137.57
2022-12-04T23:10:23.573Z,143.30
2022-12-04T23:12:51.960Z,157.67
2022-12-04T23:15:20.483Z,142.27
2022-12-04T23:17:48.926Z,148.73
2022-12-04T23:20:18.879Z,148.23
2022-12-04T23:22:48.194Z,130.73
2022-12-04T23:25:16.683Z,141.27
2022-12-04T23:27:46.639Z,136.33
2022-12-04T23:30:15.720Z,138.90
2022-12-04T23:32:45.880Z,135.13
2022-12-04T23:35:14.511Z,156.50
2022-12-04T23:37:45.657Z,144.17
2022-12-04T23:40:16.118Z,137.97
2022-12-04T23:42:44.919Z,142.60
2022-12-04T23:45:13.682Z,133.77
2022-12-04T23:47:42.324Z,153.00
